createdAt,value
2019-03-08T00:00:54.529Z,95773.18
2019-03-08T00:02:01.789Z,95771.78
2019-03-08T00:03:08.964Z,95767.20
2019-03-08T00:04:16.181Z,95770.14
2019-03-08T00:05:23.523Z,95776.47
2019-03-08T00:06:30.699Z,95769.57
2019-03-08T00:07:37.901Z,95766.99
2019-03-08T00:08:45.440Z,95770.39
2019-03-08T00:09:52.916Z,95778.48
2019-03-08T00:11:00.025Z,95775.08
2019-03-08T00:12:07.200Z,95774.26
2019-03-08T00:13:14.393Z,95771.58
2019-03-08T00:14:21.554Z,95774.52
2019-03-08T00:15:28.700Z,95777.09
2019-03-08T00:16:36.487Z,95771.11
2019-03-08T00:17:43.918Z,95771.47
2019-03-08T00:18:51.260Z,95771.11
2019-03-08T00:19:58.703Z,95775.80
2019-03-08T00:21:06.630Z,95765.95
2019-03-08T00:22:14.128Z,95771.47
2019-03-08T00:23:21.693Z,95773.61
2019-03-08T00:24:28.834Z,95774.91
2019-03-08T00:25:37.507Z,95774.44
2019-03-08T00:26:44.647Z,95773.61
2019-03-08T00:27:51.805Z,95783.06
2019-03-08T00:28:58.960Z,95786.58
2019-03-08T00:30:07.348Z,95791.27
2019-03-08T00:31:14.497Z,95785.75
2019-03-08T00:32:21.642Z,95779.67
2019-03-08T00:33:29.870Z,95788.22
2019-03-08T00:34:37.987Z,95788.22
2019-03-08T00:35:45.266Z,95791.19
2019-03-08T00:36:52.425Z,95791.88
2019-03-08T00:37:59.582Z,95796.23
2019-03-08T00:39:08.531Z,95793.98
2019-03-08T00:40:17.890Z,95804.19
2019-03-08T00:41:25.064Z,95797.75
2019-03-08T00:42:32.215Z,95801.97
2019-03-08T00:43:39.389Z,95792.48
2019-03-08T00:44:46.458Z,95794.24
2019-03-08T00:45:53.630Z,95796.81
2019-03-08T00:47:00.774Z,95797.53
2019-03-08T00:48:08.920Z,95800.83
2019-03-08T00:49:16.066Z,95799.08
2019-03-08T00:50:23.211Z,95799.44
2019-03-08T00:51:30.373Z,95800.16
2019-03-08T00:52:37.526Z,95800.05
2019-03-08T00:53:45.769Z,95799.45
2019-03-08T00:54:52.849Z,95803.67
2019-03-08T00:56:00.086Z,95812.95
2019-03-08T00:57:07.269Z,95804.29
2019-03-08T00:58:14.430Z,95808.87
2019-03-08T00:59:21.577Z,95828.00
2019-03-08T01:00:28.745Z,95812.39
2019-03-08T01:01:35.966Z,95820.38
2019-03-08T01:02:43.165Z,95821.20
2019-03-08T01:03:50.335Z,95809.48
2019-03-08T01:04:57.545Z,95822.27
2019-03-08T01:06:04.791Z,95814.90
2019-03-08T01:07:11.967Z,95820.88
2019-03-08T01:08:19.131Z,95813.50
2019-03-08T01:09:26.284Z,95817.37
2019-03-08T01:10:33.442Z,95810.82
2019-03-08T01:11:40.601Z,95828.16
2019-03-08T01:12:47.766Z,95821.61
2019-03-08T01:13:54.923Z,95823.25
2019-03-08T01:15:02.070Z,95838.62
2019-03-08T01:16:10.408Z,95825.26
2019-03-08T01:17:17.553Z,95818.70
2019-03-08T01:18:24.707Z,95829.38
2019-03-08T01:19:31.869Z,95828.55
2019-03-08T01:20:39.022Z,95830.67
2019-03-08T01:21:46.164Z,95825.05
2019-03-08T01:22:53.395Z,95820.71
2019-03-08T01:24:01.037Z,95823.65
2019-03-08T01:25:08.940Z,95825.41
2019-03-08T01:26:16.270Z,95824.01
2019-03-08T01:27:23.700Z,95823.54
2019-03-08T01:28:32.369Z,95824.23
2019-03-08T01:29:39.724Z,95821.54
2019-03-08T01:30:47.454Z,95824.37
2019-03-08T01:31:54.779Z,95826.84
2019-03-08T01:33:03.951Z,95827.66
2019-03-08T01:34:11.284Z,95825.08
2019-03-08T01:35:19.819Z,95821.22
2019-03-08T01:36:27.094Z,95823.69
2019-03-08T01:37:34.181Z,95821.93
2019-03-08T01:38:41.330Z,95823.69
2019-03-08T01:39:48.524Z,95823.22
2019-03-08T01:40:55.685Z,95824.52
2019-03-08T01:42:03.156Z,95827.09
2019-03-08T01:43:10.322Z,95822.86
2019-03-08T01:44:17.475Z,95817.59
2019-03-08T01:45:24.663Z,95818.06
2019-03-08T01:46:31.800Z,95816.30
2019-03-08T01:47:39.018Z,95820.53
2019-03-08T01:48:46.729Z,95816.66
2019-03-08T01:49:53.872Z,95819.13
2019-03-08T01:51:01.038Z,95820.06
2019-03-08T01:52:08.189Z,95823.58
2019-03-08T01:53:15.352Z,95821.11
2019-03-08T01:54:22.555Z,95823.69
2019-03-08T01:55:29.695Z,95819.56
2019-03-08T01:56:36.849Z,95826.02
2019-03-08T01:57:44.000Z,95825.19
2019-03-08T01:58:51.167Z,95823.91
2019-03-08T01:59:58.311Z,95822.14
2019-03-08T02:01:05.676Z,95817.45
2019-03-08T02:02:12.908Z,95823.44
2019-03-08T02:03:20.075Z,95827.88
2019-03-08T02:04:27.280Z,95820.72
2019-03-08T02:05:35.503Z,95823.41
2019-03-08T02:06:43.001Z,95825.16
2019-03-08T02:07:50.615Z,95822.25
2019-03-08T02:08:57.757Z,95813.44
2019-03-08T02:10:06.021Z,95815.91
2019-03-08T02:11:13.193Z,95817.66
2019-03-08T02:12:20.335Z,95816.73
2019-03-08T02:13:27.491Z,95823.18
2019-03-08T02:14:34.630Z,95827.52
2019-03-08T02:15:43.418Z,95816.13
2019-03-08T02:16:50.815Z,95825.62
2019-03-08T02:17:57.985Z,95816.80
2019-03-08T02:19:05.142Z,95815.27
2019-03-08T02:20:16.674Z,95814.22
2019-03-08T02:21:24.358Z,95819.84
2019-03-08T02:22:31.548Z,95818.66
2019-03-08T02:23:40.176Z,95813.50
2019-03-08T02:24:47.328Z,95817.02
2019-03-08T02:25:54.484Z,95824.28
2019-03-08T02:27:01.647Z,95823.45
2019-03-08T02:28:08.785Z,95806.80
2019-03-08T02:29:15.948Z,95818.05
2019-03-08T02:30:23.167Z,95818.52
2019-03-08T02:31:30.367Z,95809.59
2019-03-08T02:32:37.691Z,95816.97
2019-03-08T02:33:44.856Z,95812.28
2019-03-08T02:34:52.025Z,95811.45
2019-03-08T02:35:59.716Z,95804.80
2019-03-08T02:37:07.128Z,95806.66
2019-03-08T02:38:14.576Z,95799.49
2019-03-08T02:39:22.043Z,95809.44
2019-03-08T02:40:35.619Z,95806.97
2019-03-08T02:41:42.798Z,95813.05
2019-03-08T02:42:49.959Z,95813.16
2019-03-08T02:43:57.488Z,95816.67
2019-03-08T02:45:05.632Z,95807.65
2019-03-08T02:46:12.968Z,95816.20
2019-03-08T02:47:20.465Z,95812.44
2019-03-08T02:48:27.901Z,95812.80
2019-03-08T02:49:35.345Z,95813.16
2019-03-08T02:50:42.581Z,95811.41
2019-03-08T02:51:49.924Z,95819.86
2019-03-08T02:52:57.072Z,95821.97
2019-03-08T02:54:05.455Z,95817.17
2019-03-08T02:55:12.616Z,95814.13
2019-03-08T02:56:19.812Z,95817.17
2019-03-08T02:57:26.958Z,95816.25
2019-03-08T02:58:34.102Z,95821.40
2019-03-08T02:59:41.254Z,95819.65
2019-03-08T03:00:48.824Z,95821.40
2019-03-08T03:01:55.980Z,95821.87
2019-03-08T03:03:03.154Z,95819.65
2019-03-08T03:04:10.298Z,95816.71
2019-03-08T03:05:17.666Z,95817.42
2019-03-08T03:06:24.851Z,95819.54
2019-03-08T03:07:32.030Z,95822.94
2019-03-08T03:08:39.211Z,95825.88
2019-03-08T03:09:46.578Z,95821.09
2019-03-08T03:10:53.763Z,95827.86
2019-03-08T03:12:00.915Z,95821.77
2019-03-08T03:13:08.070Z,95818.27
2019-03-08T03:14:15.213Z,95826.36
2019-03-08T03:15:22.356Z,95822.02
2019-03-08T03:16:29.521Z,95827.18
2019-03-08T03:17:36.669Z,95822.84
2019-03-08T03:18:43.852Z,95823.78
2019-03-08T03:19:50.997Z,95827.64
2019-03-08T03:20:58.160Z,95831.05
2019-03-08T03:22:05.346Z,95831.87
2019-03-08T03:23:12.510Z,95833.98
2019-03-08T03:24:19.650Z,95835.62
2019-03-08T03:25:26.807Z,95830.94
2019-03-08T03:26:34.028Z,95830.58
2019-03-08T03:27:41.219Z,95842.54
2019-03-08T03:28:48.342Z,95834.45
2019-03-08T03:29:55.488Z,95839.61
2019-03-08T03:31:02.643Z,95832.80
2019-03-08T03:32:09.819Z,95835.38
2019-03-08T03:33:16.966Z,95834.66
2019-03-08T03:34:24.109Z,95833.51
2019-03-08T03:35:31.259Z,95830.67
2019-03-08T03:36:38.990Z,95835.94
2019-03-08T03:37:46.151Z,95831.25
2019-03-08T03:38:53.292Z,95834.39
2019-03-08T03:40:00.614Z,95825.02
2019-03-08T03:41:07.754Z,95830.27
2019-03-08T03:42:14.927Z,95830.38
2019-03-08T03:43:22.069Z,95831.67
2019-03-08T03:44:29.388Z,95824.40
2019-03-08T03:45:36.810Z,95828.62
2019-03-08T03:46:44.655Z,95828.98
2019-03-08T03:47:52.101Z,95828.41
2019-03-08T03:48:59.543Z,95818.57
2019-03-08T03:50:08.747Z,95824.08
2019-03-08T03:51:16.179Z,95829.59
2019-03-08T03:52:23.327Z,95826.09
2019-03-08T03:53:30.488Z,95828.31
2019-03-08T03:54:37.662Z,95829.95
2019-03-08T03:55:44.802Z,95833.47
2019-03-08T03:56:53.548Z,95834.65
2019-03-08T03:58:01.029Z,95832.89
2019-03-08T03:59:08.171Z,95830.78
2019-03-08T04:00:17.185Z,95829.85
2019-03-08T04:01:30.891Z,95832.89
2019-03-08T04:02:38.061Z,95832.07
2019-03-08T04:03:45.246Z,95838.63
2019-03-08T04:04:52.407Z,95842.02
2019-03-08T04:05:59.571Z,95839.91
2019-03-08T04:07:06.727Z,95845.06
2019-03-08T04:08:13.896Z,95848.47
2019-03-08T04:09:21.068Z,95844.60
2019-03-08T04:10:28.228Z,95845.42
2019-03-08T04:11:35.419Z,95851.05
2019-03-08T04:12:42.578Z,95857.84
2019-03-08T04:13:49.724Z,95852.33
2019-03-08T04:14:56.875Z,95853.16
2019-03-08T04:16:04.024Z,95856.09
2019-03-08T04:17:11.223Z,95859.24
2019-03-08T04:18:18.387Z,95861.00
2019-03-08T04:19:25.525Z,95860.73
2019-03-08T04:20:32.599Z,95862.49
2019-03-08T04:21:40.007Z,95862.49
2019-03-08T04:22:47.171Z,95869.87
2019-03-08T04:23:54.335Z,95872.91
2019-03-08T04:25:01.502Z,95877.13
2019-03-08T04:26:08.720Z,95871.98
2019-03-08T04:27:15.868Z,95877.96
2019-03-08T04:28:23.026Z,95876.20
2019-03-08T04:29:30.194Z,95884.87
2019-03-08T04:30:37.346Z,95886.41
2019-03-08T04:31:44.495Z,95885.95
2019-03-08T04:32:51.697Z,95889.35
2019-03-08T04:33:58.838Z,95896.98
2019-03-08T04:35:07.030Z,95891.83
2019-03-08T04:36:14.174Z,95896.52
2019-03-08T04:37:21.322Z,95896.05
2019-03-08T04:38:28.486Z,95896.98
2019-03-08T04:39:35.674Z,95898.27
2019-03-08T04:40:42.828Z,95898.27
2019-03-08T04:41:49.978Z,95899.20
2019-03-08T04:42:57.424Z,95896.98
2019-03-08T04:44:04.599Z,95900.84
2019-03-08T04:45:12.413Z,95911.16
2019-03-08T04:46:19.581Z,95905.17
2019-03-08T04:47:26.733Z,95902.23
2019-03-08T04:48:33.919Z,95904.81
2019-03-08T04:49:42.131Z,95904.81
2019-03-08T04:50:49.276Z,95907.86
2019-03-08T04:51:56.479Z,95918.17
2019-03-08T04:53:03.822Z,95912.76
2019-03-08T04:54:11.251Z,95913.12
2019-03-08T04:55:18.682Z,95918.27
2019-03-08T04:56:27.246Z,95918.27
2019-03-08T04:57:35.255Z,95921.31
2019-03-08T04:58:42.601Z,95914.97
2019-03-08T04:59:49.773Z,95917.55
2019-03-08T05:00:56.941Z,95923.89
2019-03-08T05:02:04.105Z,95925.55
2019-03-08T05:03:11.267Z,95925.91
2019-03-08T05:04:18.411Z,95922.60
2019-03-08T05:05:25.551Z,95922.60
2019-03-08T05:06:32.698Z,95927.40
2019-03-08T05:07:39.908Z,95923.63
2019-03-08T05:08:47.063Z,95932.30
2019-03-08T05:09:54.234Z,95928.43
2019-03-08T05:11:01.383Z,95940.03
2019-03-08T05:12:09.244Z,95933.72
2019-03-08T05:13:16.403Z,95940.98
2019-03-08T05:14:23.872Z,95935.83
2019-03-08T05:15:31.168Z,95940.16
2019-03-08T05:16:38.317Z,95938.98
2019-03-08T05:17:46.010Z,95944.70
2019-03-08T05:18:53.190Z,95948.09
2019-03-08T05:20:00.326Z,95946.09
2019-03-08T05:21:07.621Z,95954.74
2019-03-08T05:22:14.767Z,95950.52
2019-03-08T05:23:21.920Z,95948.86
2019-03-08T05:24:29.084Z,95954.95
2019-03-08T05:25:36.162Z,95948.41
2019-03-08T05:26:43.326Z,95950.05
2019-03-08T05:27:51.256Z,95947.94
2019-03-08T05:28:58.351Z,95953.56
2019-03-08T05:30:06.650Z,95949.33
2019-03-08T05:31:13.851Z,95954.02
2019-03-08T05:32:21.001Z,95955.18
2019-03-08T05:33:28.162Z,95947.98
2019-03-08T05:34:35.308Z,95950.20
2019-03-08T05:35:42.457Z,95952.05
2019-03-08T05:36:49.618Z,95961.99
2019-03-08T05:37:56.790Z,95953.80
2019-03-08T05:39:05.387Z,95961.27
2019-03-08T05:40:12.854Z,95955.75
2019-03-08T05:41:20.913Z,95954.20
2019-03-08T05:42:27.991Z,95962.53
2019-03-08T05:43:35.133Z,95955.26
2019-03-08T05:44:42.283Z,95957.94
2019-03-08T05:45:49.443Z,95971.74
2019-03-08T05:46:56.610Z,95980.76
2019-03-08T05:48:03.775Z,95970.19
2019-03-08T05:49:10.933Z,95971.58
2019-03-08T05:50:18.072Z,95973.80
2019-03-08T05:51:25.138Z,95971.31
2019-03-08T05:52:32.470Z,95977.88
2019-03-08T05:53:40.990Z,95974.48
2019-03-08T05:54:48.270Z,95996.84
2019-03-08T05:55:55.696Z,95988.75
2019-03-08T05:57:03.189Z,95989.31
2019-03-08T05:58:10.413Z,95997.04
2019-03-08T05:59:17.593Z,95994.10
2019-03-08T06:00:31.971Z,95998.79
2019-03-08T06:01:33.935Z,95996.67
2019-03-08T06:02:41.103Z,96000.64
2019-03-08T06:03:48.246Z,95999.34
2019-03-08T06:04:55.402Z,96004.04
2019-03-08T06:06:02.574Z,96002.39
2019-03-08T06:07:09.721Z,96004.04
2019-03-08T06:08:17.243Z,96008.36
2019-03-08T06:09:24.390Z,96013.52
2019-03-08T06:10:40.585Z,96014.80
2019-03-08T06:11:47.755Z,96021.70
2019-03-08T06:12:54.930Z,96022.27
2019-03-08T06:14:02.089Z,96016.28
2019-03-08T06:15:09.339Z,96025.77
2019-03-08T06:16:16.418Z,96020.70
2019-03-08T06:17:23.578Z,96018.13
2019-03-08T06:18:30.742Z,96029.27
2019-03-08T06:19:37.920Z,96023.75
2019-03-08T06:20:45.089Z,96020.84
2019-03-08T06:21:52.238Z,96031.14
2019-03-08T06:22:59.406Z,96030.77
2019-03-08T06:24:06.684Z,96031.14
2019-03-08T06:25:13.843Z,96041.44
2019-03-08T06:26:21.074Z,96030.31
2019-03-08T06:27:28.224Z,96037.58
2019-03-08T06:28:35.397Z,96042.27
2019-03-08T06:29:42.575Z,96034.05
2019-03-08T06:30:49.740Z,96035.23
2019-03-08T06:31:56.896Z,96040.02
2019-03-08T06:33:04.056Z,96045.17
2019-03-08T06:34:11.222Z,96042.04
2019-03-08T06:35:18.377Z,96037.91
2019-03-08T06:36:26.646Z,96051.61
2019-03-08T06:37:33.895Z,96043.55
2019-03-08T06:38:41.075Z,96050.45
2019-03-08T06:39:48.223Z,96050.55
2019-03-08T06:40:55.379Z,96052.30
2019-03-08T06:42:02.604Z,96050.55
2019-03-08T06:43:09.786Z,96045.86
2019-03-08T06:44:16.962Z,96048.90
2019-03-08T06:45:24.223Z,96051.84
2019-03-08T06:46:31.633Z,96047.98
2019-03-08T06:47:38.897Z,96055.70
2019-03-08T06:48:46.045Z,96056.98
2019-03-08T06:49:53.275Z,96068.95
2019-03-08T06:51:00.721Z,96073.17
2019-03-08T06:52:08.050Z,96070.59
2019-03-08T06:53:15.489Z,96070.59
2019-03-08T06:54:22.861Z,96084.27
2019-03-08T06:55:30.039Z,96080.90
2019-03-08T06:56:37.353Z,96084.39
2019-03-08T06:57:44.505Z,96085.55
2019-03-08T06:58:57.261Z,96089.42
2019-03-08T07:00:22.923Z,96089.33
2019-03-08T07:01:33.984Z,96091.44
2019-03-08T07:02:41.124Z,96086.52
2019-03-08T07:03:48.625Z,96090.83
2019-03-08T07:04:55.833Z,96089.91
2019-03-08T07:06:03.168Z,96095.39
2019-03-08T07:07:10.338Z,96098.34
2019-03-08T07:08:17.515Z,96144.70
2019-03-08T07:09:24.657Z,96092.48
2019-03-08T07:10:32.099Z,96105.36
2019-03-08T07:11:40.532Z,96098.92
2019-03-08T07:12:47.998Z,96099.84
2019-03-08T07:13:55.431Z,96089.64
2019-03-08T07:15:04.463Z,96113.65
2019-03-08T07:16:13.949Z,96105.00
2019-03-08T07:17:21.838Z,96114.02
2019-03-08T07:18:29.260Z,96120.91
2019-03-08T07:19:40.913Z,96119.98
2019-03-08T07:21:14.945Z,96124.09
2019-03-08T07:22:40.128Z,96139.81
2019-03-08T07:24:18.338Z,96135.44
2019-03-08T07:25:50.957Z,96125.88
2019-03-08T07:27:13.133Z,96149.34
2019-03-08T07:28:41.228Z,96147.69
2019-03-08T07:30:10.283Z,96163.97
2019-03-08T07:31:48.512Z,96149.44
2019-03-08T07:33:20.939Z,96157.98
2019-03-08T07:34:42.806Z,96162.44
2019-03-08T07:35:57.113Z,96151.67
2019-03-08T07:37:25.526Z,96165.71
2019-03-08T07:38:40.367Z,96160.75
2019-03-08T07:39:54.713Z,96160.75
2019-03-08T07:41:23.439Z,96172.15
2019-03-08T07:42:56.183Z,96172.42
2019-03-08T07:44:28.416Z,96174.72
2019-03-08T07:46:00.549Z,96173.44
2019-03-08T07:47:22.939Z,96182.45
2019-03-08T07:48:49.006Z,96177.30
2019-03-08T07:50:01.939Z,96179.69
2019-03-08T07:51:31.366Z,96194.09
2019-03-08T07:52:54.901Z,96191.61
2019-03-08T07:54:15.059Z,96190.23
2019-03-08T07:55:28.528Z,96187.55
2019-03-08T07:56:45.603Z,96191.78
2019-03-08T07:58:08.959Z,96203.98
2019-03-08T07:59:32.649Z,96188.44
2019-03-08T08:00:49.313Z,96203.89
2019-03-08T08:02:06.545Z,96198.84
2019-03-08T08:03:19.578Z,96212.91
2019-03-08T08:04:35.834Z,96193.95
2019-03-08T08:06:00.666Z,96192.58
2019-03-08T08:07:22.863Z,96209.04
2019-03-08T08:08:52.087Z,96207.38
2019-03-08T08:10:18.193Z,96210.42
2019-03-08T08:11:43.293Z,96221.00
2019-03-08T08:13:05.698Z,96210.84
2019-03-08T08:14:39.377Z,96220.69
2019-03-08T08:16:04.704Z,96218.84
2019-03-08T08:17:35.168Z,96211.39
2019-03-08T08:19:11.769Z,96220.78
2019-03-08T08:20:36.919Z,96234.67
2019-03-08T08:22:02.967Z,96257.31
2019-03-08T08:23:34.263Z,96237.52
2019-03-08T08:24:43.953Z,96233.13
2019-03-08T08:26:09.388Z,96232.72
2019-03-08T08:27:35.425Z,96242.19
2019-03-08T08:29:05.267Z,96243.85
2019-03-08T08:30:31.585Z,96254.25
2019-03-08T08:32:04.057Z,96245.60
2019-03-08T08:33:29.141Z,96259.88
2019-03-08T08:34:46.123Z,96270.64
2019-03-08T08:36:21.503Z,96253.42
2019-03-08T08:37:56.473Z,96260.94
2019-03-08T08:39:20.077Z,96271.43
2019-03-08T08:40:49.179Z,96264.80
2019-03-08T08:42:19.290Z,96267.42
2019-03-08T08:43:35.555Z,96274.14
2019-03-08T08:44:53.184Z,96280.86
2019-03-08T08:46:08.574Z,96273.30
2019-03-08T08:47:33.366Z,96276.66
2019-03-08T08:49:02.697Z,96283.19
2019-03-08T08:50:29.218Z,96272.41
2019-03-08T08:51:56.959Z,96278.58
2019-03-08T08:53:32.354Z,96296.17
2019-03-08T08:54:47.101Z,96297.00
2019-03-08T08:56:17.353Z,96290.75
2019-03-08T08:57:39.228Z,96296.37
2019-03-08T08:58:59.307Z,96300.33
2019-03-08T09:00:25.568Z,96276.75
2019-03-08T09:01:54.802Z,96300.42
2019-03-08T09:03:31.743Z,96286.00
2019-03-08T09:04:55.387Z,96287.84
2019-03-08T09:06:20.489Z,96292.00
2019-03-08T09:07:52.897Z,96292.83
2019-03-08T09:09:13.201Z,96307.20
2019-03-08T09:10:51.604Z,96307.94
2019-03-08T09:12:04.906Z,96306.91
2019-03-08T09:13:23.783Z,96302.95
2019-03-08T09:14:35.634Z,96322.34
2019-03-08T09:16:02.057Z,96307.05
2019-03-08T09:17:24.206Z,96315.33
2019-03-08T09:19:08.362Z,96315.94
2019-03-08T09:20:53.299Z,96318.61
2019-03-08T09:22:20.592Z,96325.74
2019-03-08T09:23:46.685Z,96333.77
2019-03-08T09:25:22.051Z,96343.34
2019-03-08T09:27:06.830Z,96339.20
2019-03-08T09:28:38.917Z,96328.28
2019-03-08T09:30:05.063Z,96333.16
2019-03-08T09:31:38.618Z,96332.42
2019-03-08T09:33:00.023Z,96329.43
2019-03-08T09:34:14.162Z,96341.41
2019-03-08T09:35:33.433Z,96342.28
2019-03-08T09:36:54.721Z,96354.07
2019-03-08T09:38:20.828Z,96342.73
2019-03-08T09:39:46.002Z,96349.91
2019-03-08T09:41:10.925Z,96349.60
2019-03-08T09:42:35.960Z,96337.66
2019-03-08T09:44:01.391Z,96344.56
2019-03-08T09:45:39.297Z,96342.45
2019-03-08T09:47:02.001Z,96344.20
2019-03-08T09:48:48.265Z,96351.11
2019-03-08T09:50:08.025Z,96342.81
2019-03-08T09:51:34.071Z,96344.81
2019-03-08T09:52:50.981Z,96346.91
2019-03-08T09:54:07.162Z,96345.11
2019-03-08T09:55:32.081Z,96348.37
2019-03-08T09:56:58.669Z,96355.26
2019-03-08T09:58:18.842Z,96337.45
2019-03-08T09:59:34.482Z,96348.84
2019-03-08T10:01:16.356Z,96350.30
2019-03-08T10:02:27.553Z,96339.48
2019-03-08T10:03:57.173Z,96358.99
2019-03-08T10:05:22.392Z,96340.06
2019-03-08T10:06:47.558Z,96339.36
2019-03-08T10:08:04.547Z,96337.05
2019-03-08T10:09:29.841Z,96343.04
2019-03-08T10:11:05.170Z,96342.67
2019-03-08T10:12:31.420Z,96347.84
2019-03-08T10:13:48.201Z,96349.56
2019-03-08T10:15:17.468Z,96353.60
2019-03-08T10:16:33.053Z,96359.20
2019-03-08T10:18:11.638Z,96347.97
2019-03-08T10:19:37.577Z,96358.46
2019-03-08T10:21:07.131Z,96350.81
2019-03-08T10:22:32.982Z,96375.52
2019-03-08T10:23:59.044Z,96351.08
2019-03-08T10:25:38.159Z,96361.05
2019-03-08T10:27:07.031Z,96347.36
2019-03-08T10:28:27.300Z,96353.81
2019-03-08T10:29:40.220Z,96358.34
2019-03-08T10:30:55.162Z,96351.45
2019-03-08T10:32:37.317Z,96361.12
2019-03-08T10:34:07.375Z,96368.46
2019-03-08T10:35:32.700Z,96362.10
2019-03-08T10:37:00.418Z,96362.20
2019-03-08T10:38:25.123Z,96360.19
2019-03-08T10:39:41.188Z,96369.59
2019-03-08T10:41:02.801Z,96371.15
2019-03-08T10:42:21.726Z,96380.36
2019-03-08T10:43:36.839Z,96372.83
2019-03-08T10:44:59.578Z,96381.83
2019-03-08T10:46:25.652Z,96375.39
2019-03-08T10:47:56.241Z,96385.42
2019-03-08T10:49:31.661Z,96376.98
2019-03-08T10:50:46.381Z,96373.70
2019-03-08T10:52:18.010Z,96384.30
2019-03-08T10:53:44.174Z,96382.34
2019-03-08T10:55:08.520Z,96385.54
2019-03-08T10:56:46.308Z,96389.91
2019-03-08T10:58:11.454Z,96388.04
2019-03-08T10:59:27.182Z,96389.55
2019-03-08T11:00:46.643Z,96391.91
2019-03-08T11:02:12.710Z,96384.01
2019-03-08T11:03:37.156Z,96410.70
2019-03-08T11:05:06.514Z,96395.80
2019-03-08T11:06:30.940Z,96398.49
2019-03-08T11:07:46.806Z,96388.51
2019-03-08T11:09:10.861Z,96400.51
2019-03-08T11:10:27.236Z,96393.11
2019-03-08T11:12:03.026Z,96400.41
2019-03-08T11:13:31.890Z,96400.77
2019-03-08T11:14:51.953Z,96394.41
2019-03-08T11:16:07.732Z,96396.16
2019-03-08T11:17:24.236Z,96404.28
2019-03-08T11:18:47.495Z,96411.69
2019-03-08T11:20:16.567Z,96403.45
2019-03-08T11:21:46.418Z,96401.08
2019-03-08T11:23:15.553Z,96410.96
2019-03-08T11:24:47.332Z,96404.03
2019-03-08T11:26:21.961Z,96398.18
2019-03-08T11:27:46.684Z,96402.42
2019-03-08T11:29:24.943Z,96412.77
2019-03-08T11:30:53.918Z,96417.95
2019-03-08T11:32:22.763Z,96409.14
2019-03-08T11:34:01.506Z,96406.47
2019-03-08T11:35:34.352Z,96418.84
2019-03-08T11:36:54.342Z,96418.37
2019-03-08T11:38:19.345Z,96419.45
2019-03-08T11:39:37.880Z,96428.63
2019-03-08T11:41:02.985Z,96414.76
2019-03-08T11:42:18.960Z,96419.83
2019-03-08T11:43:54.215Z,96408.18
2019-03-08T11:45:26.193Z,96417.31
2019-03-08T11:46:42.754Z,96406.72
2019-03-08T11:47:59.740Z,96408.27
2019-03-08T11:49:42.562Z,96404.06
2019-03-08T11:51:05.691Z,96407.59
2019-03-08T11:52:34.875Z,96399.97
2019-03-08T11:54:06.777Z,96405.47
2019-03-08T11:55:35.907Z,96393.03
2019-03-08T11:57:01.952Z,96396.09
2019-03-08T11:58:31.429Z,96396.34
2019-03-08T11:59:53.462Z,96400.70
2019-03-08T12:01:10.371Z,96394.58
2019-03-08T12:02:39.448Z,96398.25
2019-03-08T12:04:02.924Z,96397.31
2019-03-08T12:05:17.146Z,96407.81
2019-03-08T12:06:34.949Z,96399.94
2019-03-08T12:08:04.138Z,96400.98
2019-03-08T12:09:39.658Z,96402.17
2019-03-08T12:11:13.199Z,96400.52
2019-03-08T12:12:48.387Z,96399.36
2019-03-08T12:14:16.413Z,96395.70
2019-03-08T12:15:36.360Z,96389.08
2019-03-08T12:17:01.426Z,96394.58
2019-03-08T12:18:30.396Z,96395.41
2019-03-08T12:19:46.943Z,96396.48
2019-03-08T12:21:13.011Z,96396.48
2019-03-08T12:22:51.556Z,96393.75
2019-03-08T12:24:20.387Z,96401.41
2019-03-08T12:25:42.681Z,96395.55
2019-03-08T12:27:07.609Z,96398.47
2019-03-08T12:28:27.846Z,96407.67
2019-03-08T12:29:58.541Z,96405.66
2019-03-08T12:31:23.571Z,96424.36
2019-03-08T12:32:55.550Z,96415.91
2019-03-08T12:34:18.667Z,96413.06
2019-03-08T12:35:41.199Z,96412.45
2019-03-08T12:37:13.252Z,96422.34
2019-03-08T12:38:38.179Z,96409.97
2019-03-08T12:39:59.546Z,96405.73
2019-03-08T12:41:41.008Z,96414.20
2019-03-08T12:43:08.388Z,96413.13
2019-03-08T12:44:19.351Z,96409.67
2019-03-08T12:45:54.398Z,96407.89
2019-03-08T12:47:29.409Z,96398.38
2019-03-08T12:48:51.741Z,96406.78
2019-03-08T12:50:16.816Z,96405.70
2019-03-08T12:51:43.031Z,96410.41
2019-03-08T12:53:21.421Z,96418.74
2019-03-08T12:54:50.531Z,96405.91
2019-03-08T12:56:19.364Z,96415.67
2019-03-08T12:57:57.359Z,96410.26
2019-03-08T12:59:13.084Z,96416.16
2019-03-08T13:00:30.624Z,96415.22
2019-03-08T13:02:05.660Z,96419.65
2019-03-08T13:03:26.112Z,96418.61
2019-03-08T13:04:55.507Z,96413.80
2019-03-08T13:06:27.499Z,96423.55
2019-03-08T13:07:42.827Z,96424.38
2019-03-08T13:09:06.289Z,96434.26
2019-03-08T13:10:15.376Z,96421.21
2019-03-08T13:11:22.925Z,96434.05
2019-03-08T13:12:30.310Z,96430.42
2019-03-08T13:13:37.753Z,96428.55
2019-03-08T13:14:44.960Z,96434.20
2019-03-08T13:15:53.121Z,96437.14
2019-03-08T13:17:00.345Z,96437.61
2019-03-08T13:18:07.510Z,96441.50
2019-03-08T13:19:14.686Z,96435.70
2019-03-08T13:20:21.866Z,96457.81
2019-03-08T13:21:29.090Z,96458.75
2019-03-08T13:22:37.349Z,96465.32
2019-03-08T13:23:44.506Z,96462.98
2019-03-08T13:24:51.657Z,96468.72
2019-03-08T13:25:58.929Z,96463.65
2019-03-08T13:27:06.108Z,96471.59
2019-03-08T13:28:13.280Z,96458.65
2019-03-08T13:29:20.456Z,96463.72
2019-03-08T13:30:31.558Z,96455.78
2019-03-08T13:31:41.901Z,96469.20
2019-03-08T13:32:49.122Z,96458.07
2019-03-08T13:33:56.301Z,96459.27
2019-03-08T13:35:03.885Z,96450.50
2019-03-08T13:36:11.045Z,96452.78
2019-03-08T13:37:18.228Z,96453.76
2019-03-08T13:38:25.430Z,96458.38
2019-03-08T13:39:32.603Z,96450.41
2019-03-08T13:40:39.774Z,96456.31
2019-03-08T13:41:46.945Z,96458.36
2019-03-08T13:42:54.107Z,96454.36
2019-03-08T13:44:01.665Z,96448.13
2019-03-08T13:45:12.560Z,96458.30
2019-03-08T13:46:19.739Z,96444.03
2019-03-08T13:47:26.828Z,96452.41
2019-03-08T13:48:33.998Z,96449.05
2019-03-08T13:49:41.152Z,96445.26
2019-03-08T13:50:48.334Z,96451.98
2019-03-08T13:51:55.491Z,96449.17
2019-03-08T13:53:02.649Z,96461.55
2019-03-08T13:54:10.877Z,96453.16
2019-03-08T13:55:18.401Z,96460.73
2019-03-08T13:56:25.637Z,96453.53
2019-03-08T13:57:32.800Z,96457.17
2019-03-08T13:58:39.957Z,96470.25
2019-03-08T13:59:47.119Z,96457.40
2019-03-08T14:00:54.287Z,96468.95
2019-03-08T14:02:01.447Z,96457.64
2019-03-08T14:03:10.539Z,96470.86
2019-03-08T14:04:17.472Z,96467.80
2019-03-08T14:05:24.700Z,96469.45
2019-03-08T14:06:31.924Z,96463.32
2019-03-08T14:07:39.083Z,96473.11
2019-03-08T14:08:46.269Z,96470.38
2019-03-08T14:09:53.434Z,96461.30
2019-03-08T14:11:00.795Z,96484.64
2019-03-08T14:12:09.289Z,96495.16
2019-03-08T14:13:16.453Z,96492.08
2019-03-08T14:14:23.642Z,96501.48
2019-03-08T14:15:30.819Z,96502.79
2019-03-08T14:16:38.007Z,96492.36
2019-03-08T14:17:45.472Z,96491.53
2019-03-08T14:18:52.961Z,96511.88
2019-03-08T14:20:00.425Z,96506.92
2019-03-08T14:21:09.047Z,96506.31
2019-03-08T14:22:16.566Z,96515.09
2019-03-08T14:23:23.900Z,96527.06
2019-03-08T14:24:31.361Z,96544.57
2019-03-08T14:25:38.817Z,96562.85
2019-03-08T14:26:45.975Z,96566.05
2019-03-08T14:27:53.133Z,96581.61